createdAt,value
2019-05-10T00:00:03.464Z,0.44
2019-05-10T00:01:03.274Z,0.54
2019-05-10T00:02:03.531Z,0.44
2019-05-10T00:03:03.319Z,0.64
2019-05-10T00:04:03.216Z,0.56
2019-05-10T00:05:03.172Z,0.49
2019-05-10T00:06:03.278Z,0.51
2019-05-10T00:07:03.017Z,0.56
2019-05-10T00:08:03.260Z,0.44
2019-05-10T00:09:03.267Z,0.37
2019-05-10T00:10:03.151Z,0.45
2019-05-10T00:11:03.444Z,0.36
2019-05-10T00:12:03.147Z,0.48
2019-05-10T00:13:03.016Z,0.34
2019-05-10T00:14:03.053Z,0.45
2019-05-10T00:15:03.275Z,0.68
2019-05-10T00:16:02.957Z,0.6
2019-05-10T00:17:03.094Z,0.65
2019-05-10T00:18:02.963Z,0.41
2019-05-10T00:19:02.840Z,0.58
2019-05-10T00:20:03.605Z,0.51
2019-05-10T00:21:03.010Z,0.44
2019-05-10T00:22:03.741Z,0.67
2019-05-10T00:23:03.567Z,0.54
2019-05-10T00:24:02.755Z,0.71
2019-05-10T00:25:05.426Z,0.61
2019-05-10T00:26:03.329Z,0.49
2019-05-10T00:27:03.273Z,0.64
2019-05-10T00:28:03.754Z,0.68
2019-05-10T00:29:03.347Z,0.63
2019-05-10T00:30:03.675Z,0.53
2019-05-10T00:31:03.421Z,0.64
2019-05-10T00:32:03.594Z,0.61
2019-05-10T00:33:03.221Z,0.49
2019-05-10T00:34:03.474Z,0.85
2019-05-10T00:35:03.582Z,0.61
2019-05-10T00:36:03.196Z,0.62
2019-05-10T00:37:03.243Z,0.48
2019-05-10T00:38:03.370Z,0.75
2019-05-10T00:39:03.397Z,0.75
2019-05-10T00:40:03.166Z,0.85
2019-05-10T00:41:03.270Z,0.85
2019-05-10T00:42:03.077Z,0.78
2019-05-10T00:43:03.269Z,0.7
2019-05-10T00:44:03.059Z,0.7
2019-05-10T00:45:03.480Z,0.91
2019-05-10T00:46:03.201Z,0.79
2019-05-10T00:47:03.199Z,0.93
2019-05-10T00:48:03.025Z,0.82
2019-05-10T00:49:02.930Z,0.78
2019-05-10T00:50:02.917Z,0.66
2019-05-10T00:51:03.179Z,0.65
2019-05-10T00:52:03.062Z,0.52
2019-05-10T00:53:03.750Z,0.79
2019-05-10T00:54:02.804Z,0.73
2019-05-10T00:55:19.170Z,0.79
2019-05-10T00:56:03.039Z,0.55
2019-05-10T00:57:03.770Z,0.82
2019-05-10T00:58:03.487Z,0.75
2019-05-10T00:59:03.592Z,0.72
2019-05-10T01:00:03.771Z,0.68
2019-05-10T01:01:03.669Z,0.71
2019-05-10T01:02:03.661Z,0.68
2019-05-10T01:03:03.625Z,0.69
2019-05-10T01:04:03.311Z,0.76
2019-05-10T01:05:03.548Z,0.56
2019-05-10T01:06:03.371Z,0.75
2019-05-10T01:07:03.162Z,0.66
2019-05-10T01:08:03.152Z,0.69
2019-05-10T01:09:03.233Z,0.81
2019-05-10T01:10:03.096Z,0.63
2019-05-10T01:11:02.968Z,0.64
2019-05-10T01:12:03.276Z,1.04
2019-05-10T01:13:03.201Z,0.95
2019-05-10T01:14:02.810Z,0.91
2019-05-10T01:15:03.102Z,0.74
2019-05-10T01:16:03.137Z,0.61
2019-05-10T01:17:03.421Z,0.62
2019-05-10T01:18:02.966Z,0.94
2019-05-10T01:19:03.195Z,0.75
2019-05-10T01:20:02.769Z,0.74
2019-05-10T01:21:02.638Z,0.69
2019-05-10T01:22:02.859Z,0.82
2019-05-10T01:23:02.748Z,0.56
2019-05-10T01:24:02.638Z,0.82
2019-05-10T01:25:03.589Z,0.82
2019-05-10T01:26:03.857Z,0.58
2019-05-10T01:27:02.723Z,0.58
2019-05-10T01:28:02.951Z,0.58
2019-05-10T01:29:03.714Z,0.58
2019-05-10T01:30:03.676Z,1.32
2019-05-10T01:31:03.475Z,0.52
2019-05-10T01:32:03.365Z,0.52
2019-05-10T01:33:03.475Z,0.59
2019-05-10T01:34:03.324Z,0.57
2019-05-10T01:35:03.422Z,0.49
2019-05-10T01:36:03.267Z,0.76
2019-05-10T01:37:03.551Z,0.62
2019-05-10T01:38:02.961Z,0.63
2019-05-10T01:39:03.428Z,0.66
2019-05-10T01:40:03.434Z,0.56
2019-05-10T01:41:03.688Z,1.36
2019-05-10T01:42:03.333Z,0.57
2019-05-10T01:43:03.392Z,0.75
2019-05-10T01:44:03.139Z,0.69
2019-05-10T01:45:02.991Z,0.71
2019-05-10T01:46:02.919Z,0.59
2019-05-10T01:47:03.305Z,0.65
2019-05-10T01:48:03.295Z,0.51
2019-05-10T01:49:02.990Z,0.61
2019-05-10T01:50:03.202Z,0.75
2019-05-10T01:51:03.271Z,0.56
2019-05-10T01:52:02.915Z,0.64
2019-05-10T01:53:03.096Z,0.56
2019-05-10T01:54:03.060Z,0.64
2019-05-10T01:55:03.160Z,0.71
2019-05-10T01:56:02.612Z,0.79
2019-05-10T01:57:02.931Z,0.93
2019-05-10T01:58:02.891Z,0.71
2019-05-10T01:59:02.767Z,0.67
2019-05-10T02:00:02.770Z,0.64
2019-05-10T02:01:03.365Z,0.69
2019-05-10T02:02:03.603Z,0.72
2019-05-10T02:03:02.812Z,0.64
2019-05-10T02:04:03.450Z,0.71
2019-05-10T02:05:03.669Z,0.59
2019-05-10T02:06:03.436Z,0.42
2019-05-10T02:07:03.625Z,0.64
2019-05-10T02:08:03.349Z,0.52
2019-05-10T02:09:03.224Z,0.97
2019-05-10T02:10:03.640Z,0.96
2019-05-10T02:11:03.316Z,0.67
2019-05-10T02:12:03.348Z,0.68
2019-05-10T02:13:03.035Z,0.65
2019-05-10T02:14:03.324Z,0.65
2019-05-10T02:15:03.133Z,0.45
2019-05-10T02:16:03.374Z,0.64
2019-05-10T02:17:03.167Z,0.68
2019-05-10T02:18:03.301Z,0.68
2019-05-10T02:19:02.953Z,0.66
2019-05-10T02:20:03.105Z,0.99
2019-05-10T02:21:02.810Z,0.99
2019-05-10T02:22:03.057Z,0.78
2019-05-10T02:23:02.834Z,0.65
2019-05-10T02:24:03.822Z,0.74
2019-05-10T02:25:03.042Z,0.69
2019-05-10T02:26:10.039Z,0.82
2019-05-10T02:27:02.771Z,0.82
2019-05-10T02:28:03.779Z,0.72
2019-05-10T02:29:03.018Z,0.72
2019-05-10T02:30:03.575Z,0.82
2019-05-10T02:31:03.158Z,0.67
2019-05-10T02:32:03.597Z,0.83
2019-05-10T02:33:03.623Z,0.81
2019-05-10T02:34:03.880Z,0.64
2019-05-10T02:35:03.724Z,0.73
2019-05-10T02:36:03.779Z,0.95
2019-05-10T02:37:03.367Z,0.88
2019-05-10T02:38:03.557Z,0.89
2019-05-10T02:39:03.840Z,0.69
2019-05-10T02:40:03.640Z,0.65
2019-05-10T02:41:03.184Z,0.72
2019-05-10T02:42:03.766Z,0.75
2019-05-10T02:43:03.356Z,0.65
2019-05-10T02:44:03.364Z,0.85
2019-05-10T02:45:03.554Z,0.57
2019-05-10T02:46:03.318Z,0.62
2019-05-10T02:47:03.312Z,0.51
2019-05-10T02:48:02.902Z,0.62
2019-05-10T02:49:03.355Z,0.63
2019-05-10T02:50:03.468Z,0.84
2019-05-10T02:51:03.128Z,0.64
2019-05-10T02:52:02.999Z,0.78
2019-05-10T02:53:03.145Z,0.7
2019-05-10T02:54:02.956Z,0.68
2019-05-10T02:55:03.563Z,0.58
2019-05-10T02:56:02.839Z,0.65
2019-05-10T02:57:02.684Z,0.73
2019-05-10T02:58:03.086Z,0.65
2019-05-10T02:59:03.662Z,0.66
2019-05-10T03:00:02.754Z,0.57
2019-05-10T03:01:03.706Z,0.65
2019-05-10T03:02:02.759Z,0.91
2019-05-10T03:03:03.711Z,0.61
2019-05-10T03:04:02.921Z,0.72
2019-05-10T03:05:03.662Z,0.59
2019-05-10T03:06:03.576Z,0.63
2019-05-10T03:07:03.708Z,0.63
2019-05-10T03:08:03.610Z,0.92
2019-05-10T03:09:03.239Z,0.92
2019-05-10T03:10:03.935Z,0.94
2019-05-10T03:11:03.274Z,0.78
2019-05-10T03:12:03.382Z,0.78
2019-05-10T03:13:03.447Z,0.82
2019-05-10T03:14:03.328Z,1.05
2019-05-10T03:15:03.092Z,0.92
2019-05-10T03:16:03.295Z,0.91
2019-05-10T03:17:03.332Z,0.96
2019-05-10T03:18:03.015Z,0.91
2019-05-10T03:19:03.274Z,0.94
2019-05-10T03:20:03.355Z,0.86
2019-05-10T03:21:02.990Z,0.96
2019-05-10T03:22:03.107Z,1.09
2019-05-10T03:23:03.033Z,1.02
2019-05-10T03:24:03.046Z,1.09
2019-05-10T03:25:02.901Z,1.02
2019-05-10T03:26:03.232Z,0.99
2019-05-10T03:27:02.912Z,1.08
2019-05-10T03:28:02.896Z,0.89
2019-05-10T03:29:02.991Z,1.29
2019-05-10T03:30:03.076Z,0.92
2019-05-10T03:31:02.801Z,1.01
2019-05-10T03:32:02.919Z,0.99
2019-05-10T03:33:02.955Z,1.21
2019-05-10T03:34:02.704Z,1.47
2019-05-10T03:35:03.672Z,1.33
2019-05-10T03:36:03.705Z,1.18
2019-05-10T03:37:02.745Z,1.12
2019-05-10T03:38:03.596Z,1.32
2019-05-10T03:39:03.603Z,1.21
2019-05-10T03:40:03.615Z,1.15
2019-05-10T03:41:03.538Z,1.72
2019-05-10T03:42:03.224Z,1.51
2019-05-10T03:43:03.580Z,1.44
2019-05-10T03:44:03.349Z,1.61
2019-05-10T03:45:03.310Z,1.66
2019-05-10T03:46:03.411Z,1.26
2019-05-10T03:47:03.092Z,1.2
2019-05-10T03:48:04.010Z,1.45
2019-05-10T03:49:03.308Z,1.2
2019-05-10T03:50:03.194Z,1.25
2019-05-10T03:51:03.060Z,1.61
2019-05-10T03:52:03.143Z,1.26
2019-05-10T03:53:03.037Z,1.32
2019-05-10T03:54:03.100Z,1.58
2019-05-10T03:55:02.950Z,1.58
2019-05-10T03:56:03.131Z,1.74
2019-05-10T03:57:14.405Z,1.74
2019-05-10T03:58:03.011Z,1.32
2019-05-10T03:59:03.739Z,1.21
2019-05-10T04:00:03.820Z,1.21
2019-05-10T04:01:03.611Z,1.51
2019-05-10T04:02:03.603Z,1.16
2019-05-10T04:03:03.762Z,1.35
2019-05-10T04:04:03.357Z,1.61
2019-05-10T04:05:03.729Z,1.48
2019-05-10T04:06:03.004Z,1.49
2019-05-10T04:07:03.424Z,1.39
2019-05-10T04:08:03.622Z,1.64
2019-05-10T04:09:03.598Z,1.6
2019-05-10T04:10:03.079Z,1.29
2019-05-10T04:11:03.746Z,1.65
2019-05-10T04:12:03.284Z,1.55
2019-05-10T04:13:03.053Z,1.42
2019-05-10T04:14:03.327Z,1.48
2019-05-10T04:15:03.402Z,1.51
2019-05-10T04:16:03.112Z,1.34
2019-05-10T04:17:03.038Z,1.4
2019-05-10T04:18:02.861Z,1.19
2019-05-10T04:19:03.197Z,1.31
2019-05-10T04:20:03.131Z,1.64
2019-05-10T04:21:03.207Z,1.11
2019-05-10T04:22:02.981Z,1.55
2019-05-10T04:23:02.671Z,1.92
2019-05-10T04:24:03.042Z,1.26
2019-05-10T04:25:03.102Z,1.42
2019-05-10T04:26:03.007Z,1.55
2019-05-10T04:27:02.895Z,1.82
2019-05-10T04:28:03.536Z,1.19
2019-05-10T04:29:02.779Z,1.41
2019-05-10T04:30:03.563Z,1.36
2019-05-10T04:31:03.440Z,1.27
2019-05-10T04:32:03.441Z,1.34
2019-05-10T04:33:03.125Z,1.15
2019-05-10T04:34:03.766Z,1.51
2019-05-10T04:35:03.924Z,1.32
2019-05-10T04:36:03.239Z,1.18
2019-05-10T04:37:03.343Z,1.48
2019-05-10T04:38:03.295Z,1.45
2019-05-10T04:39:03.329Z,1.37
2019-05-10T04:40:03.932Z,1.23
2019-05-10T04:41:03.043Z,1.56
2019-05-10T04:42:03.116Z,1.45
2019-05-10T04:43:03.279Z,1.45
2019-05-10T04:44:02.823Z,1.51
2019-05-10T04:45:03.058Z,1.28
2019-05-10T04:46:02.951Z,1.28
2019-05-10T04:47:03.137Z,1.38
2019-05-10T04:48:02.897Z,1.53
2019-05-10T04:49:02.749Z,1.53
2019-05-10T04:50:02.635Z,1.44
2019-05-10T04:51:02.793Z,1.44
2019-05-10T04:52:02.891Z,1.28
2019-05-10T04:53:02.741Z,1.59
2019-05-10T04:54:03.740Z,1.51
2019-05-10T04:55:03.980Z,1.26
2019-05-10T04:56:03.595Z,1.81
2019-05-10T04:57:03.910Z,1.74
2019-05-10T04:58:03.688Z,1.68
2019-05-10T04:59:02.975Z,1.5
2019-05-10T05:00:03.503Z,1.74
2019-05-10T05:01:03.636Z,1.74
2019-05-10T05:02:03.499Z,1.54
2019-05-10T05:03:03.364Z,1.54
2019-05-10T05:04:03.469Z,1.54
2019-05-10T05:05:03.385Z,1.44
2019-05-10T05:06:03.131Z,1.89
2019-05-10T05:07:03.205Z,1.46
2019-05-10T05:08:06.536Z,1.63
2019-05-10T05:09:03.357Z,1.42
2019-05-10T05:10:03.465Z,1.64
2019-05-10T05:11:03.317Z,1.59
2019-05-10T05:12:03.106Z,1.41
2019-05-10T05:13:03.000Z,1.47
2019-05-10T05:14:03.016Z,1.32
2019-05-10T05:15:03.350Z,1.37
2019-05-10T05:16:03.108Z,1.41
2019-05-10T05:17:02.899Z,2.16
2019-05-10T05:18:02.757Z,1.45
2019-05-10T05:19:02.762Z,1.29
2019-05-10T05:20:04.016Z,1.22
2019-05-10T05:21:02.943Z,1.94
2019-05-10T05:22:03.818Z,1.6
2019-05-10T05:23:02.968Z,1.78
2019-05-10T05:24:02.895Z,1.97
2019-05-10T05:25:03.929Z,1.64
2019-05-10T05:26:03.744Z,1.63
2019-05-10T05:27:03.756Z,1.4
2019-05-10T05:28:08.583Z,1.46
2019-05-10T05:29:03.596Z,1.38
2019-05-10T05:30:03.648Z,1.48
2019-05-10T05:31:03.371Z,1.57
2019-05-10T05:32:03.983Z,1.23
2019-05-10T05:33:03.132Z,1.73
2019-05-10T05:34:06.281Z,1.73
2019-05-10T05:35:03.406Z,1.44
2019-05-10T05:36:03.379Z,1.51
2019-05-10T05:37:03.434Z,1.51
2019-05-10T05:38:03.366Z,1.72
2019-05-10T05:39:02.775Z,1.49
2019-05-10T05:40:03.423Z,1.49
2019-05-10T05:41:03.165Z,1.36
2019-05-10T05:42:03.299Z,1.44
2019-05-10T05:43:09.756Z,1.56
2019-05-10T05:44:03.242Z,1.21
2019-05-10T05:45:03.607Z,1.32
2019-05-10T05:46:03.114Z,1.54
2019-05-10T05:47:05.169Z,1.01
2019-05-10T05:48:03.163Z,1.36
2019-05-10T05:49:03.037Z,1.69
2019-05-10T05:50:03.122Z,1.26
2019-05-10T05:51:03.012Z,1.27
2019-05-10T05:52:03.210Z,1.09
2019-05-10T05:53:02.873Z,1.13
2019-05-10T05:54:04.472Z,1.38
2019-05-10T05:55:03.059Z,1.14
2019-05-10T05:56:13.001Z,1.25
2019-05-10T05:57:03.027Z,1.1
2019-05-10T05:58:07.107Z,1.38
2019-05-10T05:59:02.931Z,1.01
2019-05-10T06:00:06.448Z,1.15
2019-05-10T06:01:03.656Z,1.43
2019-05-10T06:02:09.503Z,1.27
2019-05-10T06:03:03.567Z,1.19
2019-05-10T06:04:09.096Z,1.53
2019-05-10T06:05:03.868Z,1.58
2019-05-10T06:06:20.805Z,1.37
2019-05-10T06:07:03.198Z,1.17
2019-05-10T06:08:03.942Z,1.19
2019-05-10T06:09:03.451Z,1.56
2019-05-10T06:10:03.643Z,1.38
2019-05-10T06:11:03.633Z,1.25
2019-05-10T06:12:12.484Z,1.44
2019-05-10T06:13:04.070Z,1.56
2019-05-10T06:14:12.716Z,1.48
2019-05-10T06:15:03.373Z,1.54
2019-05-10T06:16:12.483Z,1.26
2019-05-10T06:17:03.294Z,1.4
2019-05-10T06:18:11.622Z,1.34
2019-05-10T06:19:03.416Z,1.3
2019-05-10T06:20:07.483Z,2.16
2019-05-10T06:21:03.428Z,1.33
2019-05-10T06:22:06.848Z,1.08
2019-05-10T06:23:07.292Z,1.08
2019-05-10T06:24:13.219Z,1.18
2019-05-10T06:25:03.392Z,1.18
2019-05-10T06:26:03.042Z,1.23
2019-05-10T06:27:05.011Z,1.38
2019-05-10T06:28:02.865Z,1.38
2019-05-10T06:29:10.145Z,1.09
2019-05-10T06:30:02.948Z,1.32
2019-05-10T06:31:03.624Z,1.29
2019-05-10T06:32:03.826Z,1.28
2019-05-10T06:33:13.413Z,1.53
2019-05-10T06:34:02.879Z,0.96
2019-05-10T06:35:03.782Z,1.46
2019-05-10T06:36:02.887Z,1.37
2019-05-10T06:37:02.711Z,1.33
2019-05-10T06:38:03.458Z,1.3
2019-05-10T06:39:03.702Z,1.43
2019-05-10T06:40:03.878Z,1.35
2019-05-10T06:41:03.640Z,1.42
2019-05-10T06:42:03.441Z,1.71
2019-05-10T06:43:12.839Z,1.37
2019-05-10T06:44:03.301Z,1.69
2019-05-10T06:45:12.323Z,1.45
2019-05-10T06:46:03.265Z,1.41
2019-05-10T06:47:11.159Z,1.51
2019-05-10T06:48:03.420Z,1.62
2019-05-10T06:49:10.771Z,1.35
2019-05-10T06:50:03.124Z,1.41
2019-05-10T06:51:12.311Z,1.42
2019-05-10T06:52:03.191Z,1.49
2019-05-10T06:53:10.875Z,1.28
2019-05-10T06:54:03.020Z,1.39
2019-05-10T06:55:02.916Z,1.1
2019-05-10T06:56:03.013Z,1.18
2019-05-10T06:57:03.104Z,1.61
2019-05-10T06:58:02.956Z,1.57
2019-05-10T06:59:14.091Z,1.61
2019-05-10T07:00:07.710Z,1.53
2019-05-10T07:01:03.270Z,1.35
2019-05-10T07:02:02.821Z,1.34
2019-05-10T07:03:02.796Z,1.31
2019-05-10T07:04:02.959Z,1.32
2019-05-10T07:05:03.636Z,1.23
2019-05-10T07:06:02.695Z,1.13
2019-05-10T07:07:02.926Z,1.36
2019-05-10T07:08:17.484Z,1.29
2019-05-10T07:09:03.789Z,1.39
2019-05-10T07:10:18.536Z,1.33
2019-05-10T07:11:03.503Z,1.24
2019-05-10T07:12:09.531Z,1.25
2019-05-10T07:13:06.400Z,1.78
2019-05-10T07:14:04.046Z,1.78
2019-05-10T07:15:05.671Z,1.39
2019-05-10T07:16:03.378Z,1.55
2019-05-10T07:17:04.566Z,1.55
2019-05-10T07:18:03.880Z,1.56
2019-05-10T07:19:03.669Z,1.87
2019-05-10T07:20:03.613Z,1.63
2019-05-10T07:21:08.679Z,1.34
2019-05-10T07:22:03.148Z,1.43
2019-05-10T07:23:07.822Z,1.81
2019-05-10T07:24:03.297Z,1.71
2019-05-10T07:25:07.439Z,1.59
2019-05-10T07:26:03.257Z,1.27
2019-05-10T07:27:06.065Z,1.39
2019-05-10T07:28:02.746Z,1.33
2019-05-10T07:29:02.969Z,1.46
2019-05-10T07:30:03.040Z,1.52
2019-05-10T07:31:03.116Z,1.37
2019-05-10T07:32:03.088Z,1.39
2019-05-10T07:33:02.863Z,1.45
2019-05-10T07:34:03.004Z,1.46
2019-05-10T07:35:03.085Z,1.73
2019-05-10T07:36:03.008Z,1.56
2019-05-10T07:37:02.962Z,1.6
2019-05-10T07:38:03.370Z,1.35
2019-05-10T07:39:10.591Z,1.81
2019-05-10T07:40:03.905Z,1.52
2019-05-10T07:41:03.782Z,1.46
2019-05-10T07:42:08.674Z,1.62
2019-05-10T07:43:03.695Z,1.16
2019-05-10T07:44:10.491Z,1.37
2019-05-10T07:45:03.914Z,1.24
2019-05-10T07:46:08.710Z,1.32
2019-05-10T07:47:03.419Z,1.89
2019-05-10T07:48:10.184Z,1.44
2019-05-10T07:49:03.681Z,1.48
2019-05-10T07:50:09.467Z,1.53
2019-05-10T07:51:03.317Z,1.53
2019-05-10T07:52:04.596Z,1.32
2019-05-10T07:53:03.537Z,1.69
2019-05-10T07:54:06.473Z,1.42
2019-05-10T07:55:03.455Z,1.68
2019-05-10T07:56:07.846Z,1.41
2019-05-10T07:57:03.442Z,1.4
2019-05-10T07:58:06.957Z,2.09
2019-05-10T07:59:03.100Z,1.74
2019-05-10T08:00:06.220Z,1.51
2019-05-10T08:01:03.228Z,4.11
2019-05-10T08:02:12.664Z,4.11
2019-05-10T08:03:17.558Z,1.49
2019-05-10T08:04:02.773Z,1.68
2019-05-10T08:05:10.679Z,1.68
2019-05-10T08:06:03.038Z,1.56
2019-05-10T08:07:10.305Z,1.51
2019-05-10T08:08:02.846Z,1.51
2019-05-10T08:09:09.504Z,1.66
2019-05-10T08:10:05.013Z,1.87
2019-05-10T08:11:03.635Z,1.46
2019-05-10T08:12:05.526Z,1.15
2019-05-10T08:13:03.842Z,1.76
2019-05-10T08:14:10.388Z,1.74
2019-05-10T08:15:03.867Z,1.78
2019-05-10T08:16:09.923Z,1.61
2019-05-10T08:17:08.941Z,1.99
2019-05-10T08:18:02.169Z,1.91
2019-05-10T08:19:03.359Z,1.45
2019-05-10T08:20:03.496Z,1.71
2019-05-10T08:21:22.070Z,1.56
2019-05-10T08:22:04.681Z,1.79
2019-05-10T08:23:03.256Z,1.61
2019-05-10T08:24:13.137Z,1.55
2019-05-10T08:25:03.406Z,1.35
2019-05-10T08:26:04.751Z,1.4
2019-05-10T08:27:12.236Z,1.45
2019-05-10T08:28:05.640Z,1.51
2019-05-10T08:29:15.204Z,1.69
2019-05-10T08:30:26.127Z,1.41
2019-05-10T08:31:03.021Z,1.36
2019-05-10T08:32:03.167Z,1.49
2019-05-10T08:33:11.867Z,1.89
2019-05-10T08:34:03.041Z,1.42
2019-05-10T08:35:05.507Z,1.38
2019-05-10T08:36:05.715Z,1.42
2019-05-10T08:37:03.727Z,1.5
2019-05-10T08:38:04.726Z,1.57
2019-05-10T08:39:13.183Z,1.55
2019-05-10T08:40:03.354Z,1.59
2019-05-10T08:41:13.159Z,1.95
2019-05-10T08:43:09.823Z,1.26
2019-05-10T08:44:05.171Z,1.64
2019-05-10T08:45:09.073Z,1.34
2019-05-10T08:46:03.587Z,1.36
2019-05-10T08:47:12.569Z,1.31
2019-05-10T08:48:07.283Z,1.42
2019-05-10T08:49:03.214Z,1.31
2019-05-10T08:50:30.616Z,1.3
2019-05-10T08:51:07.723Z,1.3
2019-05-10T08:52:03.660Z,1.34
2019-05-10T08:53:16.049Z,1.34
2019-05-10T08:54:03.249Z,1.21
2019-05-10T08:55:03.023Z,1.38
2019-05-10T08:56:13.540Z,1.23
2019-05-10T08:59:05.819Z,0.85
2019-05-10T08:59:14.740Z,1.06
2019-05-10T08:59:15.713Z,1.17
2019-05-10T09:00:09.212Z,0.9
2019-05-10T09:01:26.465Z,0.93
2019-05-10T09:02:03.626Z,1.14
2019-05-10T09:03:13.795Z,0.96
2019-05-10T09:04:09.016Z,1
2019-05-10T09:05:03.254Z,1.01
2019-05-10T09:06:16.819Z,0.82
2019-05-10T09:07:03.409Z,0.91
2019-05-10T09:08:06.092Z,0.84
2019-05-10T09:09:08.252Z,0.86
2019-05-10T09:10:03.171Z,0.88
2019-05-10T09:11:07.160Z,0.74
2019-05-10T09:12:09.392Z,0.89
2019-05-10T09:13:03.682Z,0.86
2019-05-10T09:14:03.468Z,0.89
2019-05-10T09:15:10.760Z,0.9
2019-05-10T09:16:02.810Z,0.85
2019-05-10T09:17:04.737Z,0.78
2019-05-10T09:18:07.712Z,0.98
2019-05-10T09:19:02.802Z,0.91
2019-05-10T09:20:02.969Z,0.95
2019-05-10T09:21:10.664Z,1.22
2019-05-10T09:22:02.876Z,0.76
2019-05-10T09:23:03.604Z,0.93
2019-05-10T09:24:06.812Z,1.04
2019-05-10T09:25:03.264Z,0.85
2019-05-10T09:26:15.821Z,0.88
2019-05-10T09:27:03.668Z,0.73
2019-05-10T09:28:16.598Z,0.95
2019-05-10T09:29:03.610Z,0.9
2019-05-10T09:30:13.254Z,0.86
2019-05-10T09:31:21.768Z,1.02
2019-05-10T09:32:06.814Z,0.9
2019-05-10T09:33:10.377Z,0.87
2019-05-10T09:34:03.306Z,0.93
2019-05-10T09:35:09.290Z,1.27
2019-05-10T09:36:03.324Z,1.16
2019-05-10T09:37:08.320Z,0.91
2019-05-10T09:38:03.711Z,1.02
2019-05-10T09:39:03.590Z,1.13
2019-05-10T09:40:10.069Z,0.88
2019-05-10T09:41:03.291Z,0.91
2019-05-10T09:42:10.796Z,0.91
2019-05-10T09:43:09.549Z,1.12
2019-05-10T09:44:03.225Z,1.49
2019-05-10T09:45:03.318Z,1.49
2019-05-10T09:46:03.099Z,1.12
2019-05-10T09:47:04.170Z,1.14
2019-05-10T09:48:02.897Z,1.07
2019-05-10T09:49:14.483Z,1.82
2019-05-10T09:50:03.716Z,1.29
2019-05-10T09:51:04.605Z,1.29
2019-05-10T09:52:12.490Z,1.49
2019-05-10T09:53:02.840Z,1.19
2019-05-10T09:54:03.721Z,1.41
2019-05-10T09:55:14.290Z,1.24
2019-05-10T09:56:03.718Z,1.21
2019-05-10T09:57:03.068Z,1.37
2019-05-10T09:58:03.674Z,1.41
2019-05-10T09:59:03.381Z,1.48
2019-05-10T10:00:03.436Z,1.36
2019-05-10T10:01:18.842Z,1.61
2019-05-10T10:02:14.258Z,1.24
2019-05-10T10:03:02.910Z,1.29
2019-05-10T10:04:03.185Z,1.32
2019-05-10T10:05:03.153Z,1.16
2019-05-10T10:06:10.833Z,1.52
2019-05-10T10:07:03.127Z,1.31
2019-05-10T10:08:08.913Z,1.12
2019-05-10T10:09:03.146Z,1.21
2019-05-10T10:10:03.034Z,1.26
2019-05-10T10:11:16.296Z,1.37
2019-05-10T10:12:03.770Z,1.61
2019-05-10T10:13:13.822Z,1.21
2019-05-10T10:14:03.291Z,1.27
2019-05-10T10:15:03.610Z,1.27
2019-05-10T10:16:12.685Z,1.17
2019-05-10T10:17:03.599Z,1.2
2019-05-10T10:18:03.537Z,1.13
2019-05-10T10:19:03.600Z,1.09
2019-05-10T10:20:03.688Z,1.45
2019-05-10T10:21:03.480Z,1.31
2019-05-10T10:22:10.794Z,1.46
2019-05-10T10:23:03.330Z,1.32
2019-05-10T10:24:17.134Z,1.22
2019-05-10T10:25:03.562Z,2.09
2019-05-10T10:26:03.421Z,1.66
2019-05-10T10:27:03.263Z,1.18
2019-05-10T10:28:16.837Z,1.45
2019-05-10T10:29:02.830Z,1.23
2019-05-10T10:30:12.043Z,1.55
2019-05-10T10:31:05.607Z,1.55
2019-05-10T10:32:03.241Z,1.26
2019-05-10T10:33:10.752Z,1.26
2019-05-10T10:34:03.494Z,1.22
2019-05-10T10:35:02.919Z,1.31
2019-05-10T10:36:08.127Z,1.31
2019-05-10T10:37:03.123Z,1.22
2019-05-10T10:38:05.674Z,0.88
2019-05-10T10:39:03.075Z,1.24
2019-05-10T10:40:08.562Z,1.42
2019-05-10T10:41:02.928Z,1.28
2019-05-10T10:42:12.698Z,1.15
2019-05-10T10:43:03.094Z,1.35
2019-05-10T10:44:03.101Z,1.47
2019-05-10T10:45:03.162Z,1.58
2019-05-10T10:46:03.835Z,1.29
2019-05-10T10:47:03.042Z,1.19
2019-05-10T10:48:12.684Z,1.18
2019-05-10T10:49:05.683Z,1.7
2019-05-10T10:50:13.334Z,1.28
2019-05-10T10:51:03.849Z,1.65
2019-05-10T10:52:10.939Z,1.46
2019-05-10T10:53:03.749Z,0.98
2019-05-10T10:54:03.625Z,1.52
2019-05-10T10:55:10.888Z,1.49
2019-05-10T10:56:04.157Z,1.59
2019-05-10T10:57:03.386Z,1.38
2019-05-10T10:58:03.378Z,1.55
2019-05-10T10:59:03.182Z,1.58
2019-05-10T11:00:03.084Z,1.19
2019-05-10T11:01:21.126Z,1.39
2019-05-10T11:02:33.542Z,1.17
2019-05-10T11:03:03.401Z,1.28
2019-05-10T11:04:09.657Z,1.05
2019-05-10T11:05:03.448Z,1.25
2019-05-10T11:06:03.094Z,1.69
2019-05-10T11:07:11.166Z,1.29
2019-05-10T11:08:03.164Z,1.72
2019-05-10T11:09:02.939Z,1.34
2019-05-10T11:10:18.134Z,1.22
2019-05-10T11:11:02.956Z,1.3
2019-05-10T11:12:02.843Z,1.32
2019-05-10T11:13:18.015Z,1.75
2019-05-10T11:14:07.734Z,1.51
2019-05-10T11:15:03.691Z,1.64
2019-05-10T11:16:15.171Z,1.45
2019-05-10T11:17:03.622Z,1.42
2019-05-10T11:18:03.725Z,1.35
2019-05-10T11:20:02.808Z,1.41
2019-05-10T11:21:03.579Z,1.15
2019-05-10T11:22:10.898Z,1.15
2019-05-10T11:23:03.683Z,1.22
2019-05-10T11:24:03.901Z,1.32
2019-05-10T11:25:12.509Z,1.25
2019-05-10T11:26:03.678Z,1.18
2019-05-10T11:27:12.862Z,1.58
2019-05-10T11:28:03.495Z,1.85
2019-05-10T11:29:03.565Z,2.48
2019-05-10T11:30:03.707Z,1.7
2019-05-10T11:31:02.910Z,1.39
2019-05-10T11:32:16.845Z,1.24
2019-05-10T11:33:03.418Z,1.47
2019-05-10T11:34:06.395Z,1.35
2019-05-10T11:35:05.680Z,0.92
2019-05-10T11:36:09.264Z,0.87
2019-05-10T11:37:02.886Z,1.18
2019-05-10T11:38:11.939Z,1.43
2019-05-10T11:39:06.148Z,1.37
2019-05-10T11:40:03.013Z,1.29
2019-05-10T11:41:12.067Z,1.44
2019-05-10T11:42:07.570Z,1.54
2019-05-10T11:43:02.739Z,1.69
2019-05-10T11:44:08.920Z,1.09
2019-05-10T11:45:03.555Z,1.22
2019-05-10T11:46:02.968Z,0.98
2019-05-10T11:47:03.598Z,1.32
2019-05-10T11:48:03.738Z,1.34
2019-05-10T11:49:03.689Z,1.27
2019-05-10T11:50:06.698Z,1.36
2019-05-10T11:51:11.137Z,1.31
2019-05-10T11:52:02.975Z,1.36
2019-05-10T11:54:03.281Z,1.28
2019-05-10T11:55:03.134Z,1.19
2019-05-10T11:57:12.862Z,1.34
2019-05-10T11:58:12.265Z,1.36
2019-05-10T11:58:12.954Z,1.16
2019-05-10T11:59:02.882Z,1.44
2019-05-10T12:00:02.860Z,1.72
2019-05-10T12:01:18.961Z,1.64
2019-05-10T12:02:10.537Z,1.63
2019-05-10T12:04:05.348Z,1.66
2019-05-10T12:05:19.782Z,1.75
2019-05-10T12:06:08.905Z,1.75
2019-05-10T12:07:12.082Z,1.42
2019-05-10T12:08:03.425Z,1.66
2019-05-10T12:09:04.864Z,1.66
2019-05-10T12:10:21.814Z,1.65
2019-05-10T12:12:03.741Z,1.34
2019-05-10T12:13:15.717Z,1.68
2019-05-10T12:13:19.242Z,1.34
2019-05-10T12:14:03.222Z,1.49
2019-05-10T12:15:04.737Z,1.39
2019-05-10T12:16:03.470Z,1.48
2019-05-10T12:17:06.733Z,1.14
2019-05-10T12:18:05.235Z,1.52
2019-05-10T12:20:03.067Z,1.51
2019-05-10T12:21:10.856Z,1.91
2019-05-10T12:22:04.965Z,1.51
2019-05-10T12:23:03.842Z,1.26
2019-05-10T12:25:37.443Z,1.46
2019-05-10T12:27:24.685Z,1.6
2019-05-10T12:27:30.904Z,1.25
2019-05-10T12:29:16.890Z,1.21
2019-05-10T12:30:03.625Z,1.39
2019-05-10T12:31:13.321Z,1.15
2019-05-10T12:32:02.822Z,1.04
2019-05-10T12:33:10.499Z,1.25
2019-05-10T12:34:14.216Z,1.14
2019-05-10T12:35:03.721Z,0.95
2019-05-10T12:36:03.777Z,0.89
2019-05-10T12:37:08.484Z,0.91
2019-05-10T12:38:03.463Z,1.08
2019-05-10T12:39:03.427Z,1.32
2019-05-10T12:40:14.819Z,1.29
2019-05-10T12:41:05.675Z,1.26
2019-05-10T12:42:03.611Z,1.12
2019-05-10T12:43:03.365Z,1.11
2019-05-10T12:44:07.602Z,1.11
2019-05-10T12:45:03.418Z,1.04
2019-05-10T12:46:03.145Z,0.99
2019-05-10T12:47:03.577Z,1.08
2019-05-10T12:48:03.445Z,0.87
2019-05-10T12:49:05.070Z,0.94
2019-05-10T12:50:03.726Z,1.08
2019-05-10T12:51:11.797Z,1.39
2019-05-10T12:52:03.504Z,2.19
2019-05-10T12:53:18.119Z,2.2
2019-05-10T12:54:03.322Z,2.2
2019-05-10T12:55:03.161Z,1.4
2019-05-10T12:56:03.283Z,1.4
2019-05-10T12:57:03.088Z,1.09
2019-05-10T12:58:02.634Z,0.64
2019-05-10T12:59:02.949Z,0.64
2019-05-10T13:01:03.104Z,0.93
2019-05-10T13:02:10.606Z,0.54
2019-05-10T13:03:13.477Z,0.67
2019-05-10T13:04:16.578Z,0.71
2019-05-10T13:05:03.101Z,0.98
2019-05-10T13:06:02.952Z,0.78
2019-05-10T13:07:03.852Z,0.52
2019-05-10T13:08:03.713Z,0.67
2019-05-10T13:09:02.851Z,0.85
2019-05-10T13:10:08.756Z,0.85
2019-05-10T13:11:03.022Z,0.75
2019-05-10T13:12:06.277Z,0.83
2019-05-10T13:13:03.164Z,0.58
2019-05-10T13:14:09.457Z,0.54
2019-05-10T13:15:02.807Z,0.79
2019-05-10T13:16:11.599Z,0.79
2019-05-10T13:18:03.794Z,0.81
2019-05-10T13:19:03.147Z,0.85
2019-05-10T13:20:03.736Z,0.9
2019-05-10T13:21:08.881Z,0.88
2019-05-10T13:22:07.620Z,0.85
2019-05-10T13:23:03.698Z,0.8
2019-05-10T13:24:03.718Z,1.17
2019-05-10T13:25:03.599Z,1.79
2019-05-10T13:26:03.511Z,0.85
2019-05-10T13:27:03.752Z,0.66
2019-05-10T13:28:03.407Z,0.93